createdAt,value
2018-06-02T00:00:29.826Z,12.68
2018-06-02T00:02:57.602Z,9.85
2018-06-02T00:05:25.300Z,7.83
2018-06-02T00:07:52.951Z,10.90
2018-06-02T00:10:20.859Z,9.82
2018-06-02T00:12:48.532Z,7.55
2018-06-02T00:15:16.176Z,11.18
2018-06-02T00:17:43.889Z,11.60
2018-06-02T00:20:11.552Z,11.15
2018-06-02T00:22:39.404Z,9.45
2018-06-02T00:25:07.108Z,9.23
2018-06-02T00:27:34.954Z,6.37
2018-06-02T00:30:02.732Z,10.40
2018-06-02T00:32:30.529Z,8.95
2018-06-02T00:34:58.205Z,10.15
2018-06-02T00:37:25.985Z,10.15
2018-06-02T00:39:53.735Z,9.50
2018-06-02T00:42:21.510Z,9.52
2018-06-02T00:44:49.184Z,9.43
2018-06-02T00:47:16.962Z,6.87
2018-06-02T00:49:44.760Z,8.68
2018-06-02T00:52:12.616Z,9.60
2018-06-02T00:54:52.271Z,9.98
2018-06-02T00:57:20.150Z,8.30
2018-06-02T00:59:47.926Z,9.23
2018-06-02T01:02:15.623Z,9.00
2018-06-02T01:04:43.487Z,10.38
2018-06-02T01:07:11.285Z,9.23
2018-06-02T01:09:39.282Z,8.40
2018-06-02T01:12:08.147Z,8.55
2018-06-02T01:14:35.921Z,8.68
2018-06-02T01:17:03.690Z,8.65
2018-06-02T01:19:31.488Z,6.80
2018-06-02T01:21:59.112Z,8.98
2018-06-02T01:24:26.917Z,7.20
2018-06-02T01:26:54.613Z,7.20
2018-06-02T01:29:22.389Z,8.32
2018-06-02T01:31:50.164Z,8.30
2018-06-02T01:34:17.921Z,6.87
2018-06-02T01:36:45.697Z,8.25
2018-06-02T01:39:13.617Z,10.15
2018-06-02T01:41:41.352Z,8.95
2018-06-02T01:44:09.242Z,8.55
2018-06-02T01:46:37.007Z,8.52
2018-06-02T01:49:04.884Z,10.20
2018-06-02T01:51:32.512Z,8.40
2018-06-02T01:54:01.084Z,11.05
2018-06-02T01:56:28.752Z,8.98
2018-06-02T01:58:56.501Z,10.30
2018-06-02T02:01:24.173Z,10.23
2018-06-02T02:03:51.952Z,12.40
2018-06-02T02:06:19.650Z,7.57
2018-06-02T02:08:48.157Z,9.52
2018-06-02T02:11:15.929Z,11.90
2018-06-02T02:13:43.671Z,8.38
2018-06-02T02:16:11.497Z,8.35
2018-06-02T02:18:39.326Z,9.05
2018-06-02T02:21:07.210Z,9.50
2018-06-02T02:23:34.981Z,8.35
2018-06-02T02:26:02.757Z,10.97
2018-06-02T02:28:30.456Z,10.60
2018-06-02T02:30:58.228Z,9.68
2018-06-02T02:33:25.916Z,9.38
2018-06-02T02:35:53.658Z,10.23
2018-06-02T02:38:21.339Z,9.77
2018-06-02T02:40:49.029Z,8.90
2018-06-02T02:43:16.884Z,11.30
2018-06-02T02:45:44.591Z,11.82
2018-06-02T02:48:12.440Z,12.25
2018-06-02T02:50:40.220Z,10.02
2018-06-02T02:53:08.197Z,10.43
2018-06-02T02:55:36.084Z,11.50
2018-06-02T02:58:03.873Z,13.68
2018-06-02T03:00:31.517Z,15.83
2018-06-02T03:02:59.225Z,9.35
2018-06-02T03:05:26.973Z,16.10
2018-06-02T03:07:54.751Z,11.30
2018-06-02T03:10:22.396Z,11.63
2018-06-02T03:12:50.198Z,14.10
2018-06-02T03:15:17.898Z,10.82
2018-06-02T03:17:45.678Z,11.38
2018-06-02T03:20:13.634Z,9.85
2018-06-02T03:22:41.513Z,10.30
2018-06-02T03:25:09.209Z,14.90
2018-06-02T03:27:37.065Z,14.77
2018-06-02T03:30:04.845Z,14.38
2018-06-02T03:32:32.496Z,11.50
2018-06-02T03:35:00.290Z,15.23
2018-06-02T03:37:28.070Z,15.13
2018-06-02T03:39:55.760Z,15.77
2018-06-02T03:42:23.440Z,15.63
2018-06-02T03:44:51.189Z,12.23
2018-06-02T03:47:18.966Z,12.95
2018-06-02T03:49:46.746Z,18.75
2018-06-02T03:52:14.603Z,14.02
2018-06-02T03:54:42.320Z,15.48
2018-06-02T03:57:10.072Z,13.25
2018-06-02T03:59:37.950Z,12.65
2018-06-02T04:02:05.830Z,12.65
2018-06-02T04:04:33.603Z,14.57
2018-06-02T04:07:01.379Z,11.40
2018-06-02T04:09:29.077Z,14.30
2018-06-02T04:11:56.748Z,14.13
2018-06-02T04:14:24.392Z,11.35
2018-06-02T04:16:52.179Z,13.50
2018-06-02T04:19:19.955Z,15.35
2018-06-02T04:21:47.731Z,13.95
2018-06-02T04:24:15.440Z,17.58
2018-06-02T04:26:43.321Z,11.98
2018-06-02T04:29:11.085Z,16.65
2018-06-02T04:31:38.939Z,16.27
2018-06-02T04:34:06.589Z,16.52
2018-06-02T04:36:34.387Z,16.55
2018-06-02T04:39:02.062Z,10.35
2018-06-02T04:41:29.735Z,17.17
2018-06-02T04:43:57.388Z,16.00
2018-06-02T04:46:25.109Z,17.95
2018-06-02T04:48:52.740Z,18.52
2018-06-02T04:51:20.431Z,13.88
2018-06-02T04:53:48.129Z,17.50
2018-06-02T04:56:15.882Z,13.25
2018-06-02T04:58:43.693Z,14.60
2018-06-02T05:01:11.537Z,14.70
2018-06-02T05:03:39.315Z,17.60
2018-06-02T05:06:07.177Z,14.82
2018-06-02T05:08:34.969Z,20.42
2018-06-02T05:11:02.744Z,17.37
2018-06-02T05:13:30.440Z,15.00
2018-06-02T05:15:58.199Z,22.05
2018-06-02T05:18:25.896Z,22.87
2018-06-02T05:20:53.652Z,20.20
2018-06-02T05:23:21.426Z,19.57
2018-06-02T05:25:49.100Z,21.75
2018-06-02T05:28:16.768Z,21.37
2018-06-02T05:30:44.476Z,24.20
2018-06-02T05:33:12.431Z,15.07
2018-06-02T05:35:40.290Z,21.20
2018-06-02T05:38:08.016Z,14.73
2018-06-02T05:40:35.869Z,14.77
2018-06-02T05:43:03.635Z,15.30
2018-06-02T05:45:31.413Z,19.73
2018-06-02T05:47:59.212Z,14.18
2018-06-02T05:50:26.883Z,16.53
2018-06-02T05:52:54.565Z,20.20
2018-06-02T05:55:22.337Z,18.98
2018-06-02T05:57:49.984Z,22.80
2018-06-02T06:00:17.694Z,18.57
2018-06-02T06:02:45.358Z,19.12
2018-06-02T06:05:13.035Z,19.67
2018-06-02T06:07:40.885Z,14.63
2018-06-02T06:10:08.665Z,21.42
2018-06-02T06:12:36.443Z,17.67
2018-06-02T06:15:04.249Z,23.52
2018-06-02T06:17:31.886Z,20.52
2018-06-02T06:19:59.673Z,23.00
2018-06-02T06:22:27.316Z,15.40
2018-06-02T06:24:54.985Z,17.90
2018-06-02T06:27:22.790Z,17.17
2018-06-02T06:29:50.566Z,18.12
2018-06-02T06:32:18.207Z,15.60
2018-06-02T06:34:46.734Z,14.45
2018-06-02T06:37:14.531Z,18.55
2018-06-02T06:39:42.388Z,27.67
2018-06-02T06:42:10.189Z,15.40
2018-06-02T06:44:37.960Z,21.33
2018-06-02T06:47:07.537Z,20.12
2018-06-02T06:49:35.189Z,22.15
2018-06-02T06:52:03.829Z,19.70
2018-06-02T06:54:31.605Z,23.92
2018-06-02T06:56:59.304Z,22.30
2018-06-02T06:59:27.037Z,16.77
2018-06-02T07:01:54.757Z,14.68
2018-06-02T07:04:22.403Z,13.07
2018-06-02T07:06:50.182Z,13.60
2018-06-02T07:09:17.850Z,10.73
2018-06-02T07:11:45.532Z,9.43
2018-06-02T07:14:13.182Z,10.55
2018-06-02T07:16:41.041Z,10.57
2018-06-02T07:19:09.675Z,9.80
2018-06-02T07:21:37.476Z,11.53
2018-06-02T07:24:05.137Z,11.90
2018-06-02T07:26:32.900Z,11.23
2018-06-02T07:29:00.677Z,9.13
2018-06-02T07:31:28.659Z,8.90
2018-06-02T07:33:56.542Z,7.97
2018-06-02T07:36:24.181Z,9.02
2018-06-02T07:38:52.091Z,6.37
2018-06-02T07:41:19.867Z,7.10
2018-06-02T07:43:47.569Z,5.90
2018-06-02T07:46:15.240Z,7.35
2018-06-02T07:48:43.093Z,7.40
2018-06-02T07:51:10.870Z,5.60
2018-06-02T07:53:38.954Z,5.78
2018-06-02T07:56:06.938Z,6.90
2018-06-02T07:58:34.710Z,6.43
2018-06-02T08:01:02.388Z,5.57
2018-06-02T08:03:30.168Z,4.97
2018-06-02T08:05:57.976Z,6.30
2018-06-02T08:08:26.146Z,5.28
2018-06-02T08:10:54.644Z,5.68
2018-06-02T08:13:22.270Z,5.20
2018-06-02T08:15:49.941Z,4.95
2018-06-02T08:18:17.735Z,5.32
2018-06-02T08:20:45.440Z,4.10
2018-06-02T08:23:13.213Z,4.80
2018-06-02T08:25:41.069Z,5.35
2018-06-02T08:28:08.873Z,4.82
2018-06-02T08:30:37.764Z,4.57
2018-06-02T08:33:05.424Z,4.65
2018-06-02T08:35:33.196Z,4.75
2018-06-02T08:38:00.892Z,6.20
2018-06-02T08:40:28.668Z,4.72
2018-06-02T08:42:56.317Z,5.87
2018-06-02T08:45:24.307Z,6.40
2018-06-02T08:47:52.001Z,5.40
2018-06-02T08:50:19.859Z,4.53
2018-06-02T08:52:47.633Z,3.97
2018-06-02T08:55:15.409Z,4.87
2018-06-02T08:57:43.217Z,3.55
2018-06-02T09:00:10.989Z,4.18
2018-06-02T09:02:38.661Z,4.70
2018-06-02T09:05:06.546Z,4.50
2018-06-02T09:07:34.183Z,4.43
2018-06-02T09:10:01.862Z,3.92
2018-06-02T09:12:29.558Z,4.07
2018-06-02T09:14:57.238Z,3.47
2018-06-02T09:17:24.987Z,3.73
2018-06-02T09:19:52.686Z,3.87
2018-06-02T09:22:20.461Z,3.80
2018-06-02T09:24:48.100Z,3.70
2018-06-02T09:27:15.818Z,4.30
2018-06-02T09:29:43.563Z,3.25
2018-06-02T09:32:11.440Z,3.15
2018-06-02T09:34:39.139Z,3.90
2018-06-02T09:37:06.994Z,3.90
2018-06-02T09:39:34.688Z,3.40
2018-06-02T09:42:02.544Z,3.35
2018-06-02T09:44:30.320Z,3.37
2018-06-02T09:46:58.013Z,3.40
2018-06-02T09:49:25.692Z,3.90
2018-06-02T09:51:53.547Z,3.67
2018-06-02T09:54:21.324Z,3.40
2018-06-02T09:56:49.101Z,3.65
2018-06-02T09:59:16.877Z,3.20
2018-06-02T10:01:44.580Z,3.92
2018-06-02T10:04:12.331Z,3.20
2018-06-02T10:06:40.306Z,3.42
2018-06-02T10:09:07.985Z,3.60
2018-06-02T10:11:35.785Z,2.75
2018-06-02T10:14:03.535Z,2.75
2018-06-02T10:16:31.356Z,3.70
2018-06-02T10:18:59.109Z,3.67
2018-06-02T10:21:26.749Z,3.10
2018-06-02T10:23:54.615Z,3.65
2018-06-02T10:26:22.280Z,3.35
2018-06-02T10:28:50.808Z,3.77
2018-06-02T10:31:18.508Z,4.65
2018-06-02T10:33:46.284Z,2.90
2018-06-02T10:36:14.036Z,3.30
2018-06-02T10:38:41.915Z,3.33
2018-06-02T10:41:09.896Z,3.37
2018-06-02T10:43:37.891Z,3.42
2018-06-02T10:46:05.970Z,3.28
2018-06-02T10:48:33.657Z,3.37
2018-06-02T10:51:01.411Z,2.87
2018-06-02T10:53:29.291Z,3.37
2018-06-02T10:55:57.272Z,3.10
2018-06-02T10:58:25.188Z,3.20
2018-06-02T11:00:52.929Z,3.27
2018-06-02T11:03:20.910Z,3.60
2018-06-02T11:05:48.895Z,3.62
2018-06-02T11:08:16.690Z,3.60
2018-06-02T11:10:44.348Z,3.85
2018-06-02T11:13:12.032Z,3.50
2018-06-02T11:15:39.706Z,3.37
2018-06-02T11:18:07.380Z,3.42
2018-06-02T11:20:35.456Z,3.33
2018-06-02T11:23:03.096Z,3.70
2018-06-02T11:25:30.812Z,3.40
2018-06-02T11:27:58.568Z,3.75
2018-06-02T11:30:26.446Z,3.72
2018-06-02T11:32:54.223Z,3.83
2018-06-02T11:35:21.999Z,4.15
2018-06-02T11:37:50.085Z,3.90
2018-06-02T11:40:18.167Z,3.53
2018-06-02T11:42:45.868Z,3.58
2018-06-02T11:45:13.636Z,3.90
2018-06-02T11:47:41.287Z,3.97
2018-06-02T11:50:08.984Z,3.72
2018-06-02T11:52:36.853Z,4.28
2018-06-02T11:55:04.641Z,4.10
2018-06-02T11:57:32.290Z,3.77
2018-06-02T12:00:00.168Z,3.87
2018-06-02T12:02:28.154Z,3.70
2018-06-02T12:04:56.650Z,3.72
2018-06-02T12:07:24.349Z,3.62
2018-06-02T12:09:52.915Z,3.40
2018-06-02T12:12:20.609Z,3.30
2018-06-02T12:14:48.270Z,3.25
2018-06-02T12:17:16.345Z,3.50
2018-06-02T12:19:44.125Z,3.67
2018-06-02T12:22:11.788Z,3.20
2018-06-02T12:24:39.495Z,3.70
2018-06-02T12:27:07.268Z,3.45
2018-06-02T12:29:35.022Z,3.00
2018-06-02T12:32:02.692Z,3.45
2018-06-02T12:34:30.516Z,4.20
2018-06-02T12:36:58.478Z,3.08
2018-06-02T12:39:26.126Z,3.28
2018-06-02T12:41:53.983Z,2.87
2018-06-02T12:44:21.616Z,2.62
2018-06-02T12:46:49.456Z,2.90
2018-06-02T12:49:17.232Z,2.80
2018-06-02T12:51:45.230Z,2.70
2018-06-02T12:54:12.885Z,2.70
2018-06-02T12:56:40.664Z,3.17
2018-06-02T12:59:08.296Z,2.42
2018-06-02T13:01:36.935Z,2.83
2018-06-02T13:04:04.710Z,2.60
2018-06-02T13:06:32.496Z,2.78
2018-06-02T13:09:00.267Z,2.80
2018-06-02T13:11:28.098Z,2.50
2018-06-02T13:13:56.110Z,2.60
2018-06-02T13:16:23.864Z,2.85
2018-06-02T13:18:52.316Z,2.58
2018-06-02T13:21:19.984Z,2.30
2018-06-02T13:23:47.743Z,2.00
2018-06-02T13:26:15.519Z,2.30
2018-06-02T13:28:43.293Z,2.28
2018-06-02T13:31:10.989Z,2.22
2018-06-02T13:33:38.657Z,2.47
2018-06-02T13:36:06.418Z,2.67
2018-06-02T13:38:34.197Z,2.50
2018-06-02T13:41:01.971Z,2.50
2018-06-02T13:43:29.849Z,2.33
2018-06-02T13:45:57.837Z,1.95
2018-06-02T13:48:26.881Z,2.37
2018-06-02T13:50:54.802Z,2.28
2018-06-02T13:53:22.598Z,2.22
2018-06-02T13:55:50.388Z,2.30
2018-06-02T13:58:18.146Z,2.22
2018-06-02T14:00:45.922Z,2.17
2018-06-02T14:03:13.701Z,2.10
2018-06-02T14:05:41.475Z,2.43
2018-06-02T14:08:09.251Z,2.20
2018-06-02T14:10:37.027Z,2.20
2018-06-02T14:13:04.684Z,2.07
2018-06-02T14:15:32.684Z,2.20
2018-06-02T14:18:00.481Z,2.30
2018-06-02T14:20:28.337Z,2.30
2018-06-02T14:22:56.113Z,2.00
2018-06-02T14:25:24.040Z,2.30
2018-06-02T14:27:51.790Z,2.15
2018-06-02T14:30:19.461Z,2.03
2018-06-02T14:32:47.321Z,1.90
2018-06-02T14:35:15.022Z,2.12
2018-06-02T14:37:42.874Z,2.10
2018-06-02T14:40:10.593Z,2.37
2018-06-02T14:42:38.348Z,2.33
2018-06-02T14:45:05.984Z,2.20
2018-06-02T14:47:33.777Z,2.35
2018-06-02T14:50:01.857Z,2.30
2018-06-02T14:52:29.740Z,2.10
2018-06-02T14:54:57.759Z,2.20
2018-06-02T14:57:25.674Z,2.10
2018-06-02T14:59:53.396Z,2.33
2018-06-02T15:02:21.146Z,2.10
2018-06-02T15:04:48.923Z,2.30
2018-06-02T15:07:16.905Z,2.30
2018-06-02T15:09:44.683Z,2.58
2018-06-02T15:12:12.461Z,2.30
2018-06-02T15:14:40.153Z,2.20
2018-06-02T15:17:08.011Z,2.30
2018-06-02T15:19:35.640Z,2.12
2018-06-02T15:22:03.304Z,2.22
2018-06-02T15:24:31.773Z,2.30
2018-06-02T15:26:59.761Z,2.20
2018-06-02T15:29:27.610Z,2.20
2018-06-02T15:31:55.569Z,2.28
2018-06-02T15:34:23.374Z,2.07
2018-06-02T15:36:51.017Z,2.05
2018-06-02T15:39:18.736Z,2.50
2018-06-02T15:41:47.241Z,2.17
2018-06-02T15:44:15.020Z,2.37
2018-06-02T15:46:42.676Z,2.40
2018-06-02T15:49:10.361Z,2.60
2018-06-02T15:51:38.046Z,2.60
2018-06-02T15:54:05.729Z,2.15
2018-06-02T15:56:33.478Z,1.92
2018-06-02T15:59:01.259Z,1.90
2018-06-02T16:01:29.141Z,2.00
2018-06-02T16:03:57.759Z,2.00
2018-06-02T16:06:26.229Z,10.05
2018-06-02T16:08:54.015Z,2.80
2018-06-02T16:11:21.657Z,2.53
2018-06-02T16:13:49.423Z,2.58
2018-06-02T16:16:17.073Z,2.10
2018-06-02T16:18:44.877Z,2.17
2018-06-02T16:21:12.654Z,2.60
2018-06-02T16:23:40.352Z,2.90
2018-06-02T16:26:08.203Z,3.20
2018-06-02T16:28:35.904Z,2.95
2018-06-02T16:31:03.657Z,3.37
2018-06-02T16:33:31.431Z,4.80
2018-06-02T16:35:59.361Z,7.97
2018-06-02T16:38:27.905Z,2.80
2018-06-02T16:40:56.008Z,2.00
2018-06-02T16:43:23.870Z,2.30
2018-06-02T16:45:51.743Z,2.30
2018-06-02T16:48:19.519Z,2.45
2018-06-02T16:50:47.425Z,2.00
2018-06-02T16:53:15.275Z,2.13
2018-06-02T16:55:43.060Z,1.60
2018-06-02T17:15:13.204Z,6.70
2018-06-02T17:17:42.304Z,4.70
2018-06-02T17:21:42.521Z,3.33
2018-06-02T17:24:11.267Z,2.60
2018-06-02T17:26:40.508Z,2.47
2018-06-02T17:29:09.817Z,2.80
2018-06-02T17:31:39.037Z,2.77
2018-06-02T17:34:08.083Z,3.80
2018-06-02T17:36:37.093Z,8.73
2018-06-02T17:39:07.256Z,3.23
2018-06-02T17:41:36.320Z,2.83
2018-06-02T17:44:05.381Z,2.77
2018-06-02T17:46:34.520Z,2.50
2018-06-02T17:49:03.686Z,2.90
2018-06-02T17:51:32.807Z,2.40
2018-06-02T17:54:01.910Z,2.45
2018-06-02T17:56:30.964Z,2.80
2018-06-02T17:59:00.217Z,2.55
2018-06-02T18:01:29.400Z,2.47
2018-06-02T18:03:58.616Z,2.65
2018-06-02T18:06:27.813Z,2.60
2018-06-02T18:08:57.172Z,2.50
2018-06-02T18:11:26.387Z,2.58
2018-06-02T18:13:55.700Z,2.27
2018-06-02T18:16:24.861Z,2.30
2018-06-02T18:18:54.026Z,2.30
2018-06-02T18:21:23.121Z,2.33
2018-06-02T18:23:52.205Z,2.42
2018-06-02T18:26:21.432Z,2.35
2018-06-02T18:28:50.749Z,2.25
2018-06-02T18:31:19.920Z,2.70
2018-06-02T18:33:49.024Z,2.57
2018-06-02T18:36:18.281Z,2.50
2018-06-02T18:38:47.362Z,2.72
2018-06-02T18:41:16.701Z,2.50
2018-06-02T18:43:46.004Z,2.45
2018-06-02T18:46:15.441Z,2.65
2018-06-02T18:48:44.514Z,3.00
2018-06-02T18:51:13.632Z,3.25
2018-06-02T18:53:42.818Z,3.50
2018-06-02T18:56:12.174Z,3.27
2018-06-02T18:58:41.454Z,3.83
2018-06-02T19:01:10.909Z,3.12
2018-06-02T19:03:40.396Z,3.22
2018-06-02T19:06:09.508Z,3.17
2018-06-02T19:08:38.784Z,2.95
2018-06-02T19:11:08.141Z,3.10
2018-06-02T19:13:37.304Z,2.85
2018-06-02T19:16:06.659Z,3.20
2018-06-02T19:18:35.928Z,2.92
2018-06-02T19:21:05.096Z,3.30
2018-06-02T19:23:34.257Z,3.17
2018-06-02T19:26:03.557Z,3.47
2018-06-02T19:28:32.800Z,3.35
2018-06-02T19:31:01.985Z,3.50
2018-06-02T19:33:31.232Z,3.00
2018-06-02T19:36:00.297Z,3.20
2018-06-02T19:38:29.540Z,7.33
2018-06-02T19:40:58.765Z,4.35
2018-06-02T19:43:28.086Z,7.45
2018-06-02T19:45:57.240Z,3.70
2018-06-02T19:48:26.496Z,3.50
2018-06-02T19:50:55.548Z,3.80
2018-06-02T19:53:24.713Z,3.37
2018-06-02T19:55:53.920Z,3.55
2018-06-02T19:58:23.002Z,3.37
2018-06-02T20:00:52.341Z,3.42
2018-06-02T20:03:21.645Z,3.75
2018-06-02T20:05:51.125Z,3.80
2018-06-02T20:08:20.280Z,3.70
2018-06-02T20:10:49.353Z,3.95
2018-06-02T20:13:18.480Z,3.33
2018-06-02T20:15:47.564Z,14.23
2018-06-02T20:18:16.701Z,5.17
2018-06-02T20:20:45.989Z,5.20
2018-06-02T20:23:15.276Z,3.47
2018-06-02T20:25:44.265Z,3.55
2018-06-02T20:28:12.938Z,3.58
2018-06-02T20:30:42.145Z,4.40
2018-06-02T20:33:11.246Z,4.72
2018-06-02T20:35:40.456Z,4.00
2018-06-02T20:38:09.632Z,4.10
2018-06-02T20:40:38.773Z,4.58
2018-06-02T20:43:07.980Z,4.10
2018-06-02T20:45:37.396Z,3.70
2018-06-02T20:48:06.712Z,3.47
2018-06-02T20:50:35.933Z,3.87
2018-06-02T20:53:05.199Z,3.95
2018-06-02T20:55:34.437Z,3.90
2018-06-02T20:58:03.621Z,3.90
2018-06-02T21:00:32.965Z,3.52
2018-06-02T21:03:02.228Z,3.80
2018-06-02T21:05:31.565Z,4.12
2018-06-02T21:08:00.751Z,3.77
2018-06-02T21:10:29.789Z,3.92
2018-06-02T21:12:58.988Z,3.98
2018-06-02T21:15:28.450Z,4.00
2018-06-02T21:17:57.485Z,5.27
2018-06-02T21:20:26.760Z,13.43
2018-06-02T21:22:55.968Z,5.12
2018-06-02T21:25:25.435Z,4.50
2018-06-02T21:27:54.999Z,4.58
2018-06-02T21:30:24.274Z,4.40
2018-06-02T21:32:53.523Z,4.20
2018-06-02T21:35:22.689Z,4.17
2018-06-02T21:37:52.021Z,4.20
2018-06-02T21:40:21.297Z,3.92
2018-06-02T21:42:50.731Z,5.00
2018-06-02T21:45:19.921Z,4.80
2018-06-02T21:47:49.273Z,4.25
2018-06-02T21:50:18.354Z,4.92
2018-06-02T21:52:47.495Z,5.25
2018-06-02T21:55:16.679Z,5.30
2018-06-02T21:57:46.017Z,5.40
2018-06-02T22:00:15.325Z,5.00
2018-06-02T22:02:44.744Z,6.05
2018-06-02T22:05:13.808Z,5.95
2018-06-02T22:07:43.376Z,5.87
2018-06-02T22:10:12.840Z,5.85
2018-06-02T22:12:42.113Z,5.80
2018-06-02T22:15:11.860Z,6.45
2018-06-02T22:17:41.138Z,6.10
2018-06-02T22:20:10.137Z,5.55
2018-06-02T22:22:39.313Z,5.95
2018-06-02T22:25:08.715Z,5.90
2018-06-02T22:27:37.828Z,5.95
2018-06-02T22:30:06.989Z,6.67
2018-06-02T22:32:36.144Z,7.80
2018-06-02T22:35:05.501Z,6.80
2018-06-02T22:37:34.685Z,6.75
2018-06-02T22:40:04.146Z,8.10
2018-06-02T22:42:33.419Z,7.33
2018-06-02T22:45:02.659Z,8.30
2018-06-02T22:47:31.813Z,7.33
2018-06-02T22:50:01.212Z,6.75
2018-06-02T22:52:30.443Z,7.23
2018-06-02T22:54:59.912Z,8.83
2018-06-02T22:57:29.313Z,8.60
2018-06-02T22:59:58.635Z,9.60
2018-06-02T23:02:27.829Z,8.50
2018-06-02T23:04:57.275Z,8.10
2018-06-02T23:07:26.641Z,8.80
2018-06-02T23:09:56.098Z,9.05
2018-06-02T23:12:25.292Z,11.30
2018-06-02T23:14:54.528Z,10.13
2018-06-02T23:17:23.695Z,9.90
2018-06-02T23:19:52.744Z,9.90
2018-06-02T23:22:33.745Z,10.55
2018-06-02T23:25:02.873Z,8.63
2018-06-02T23:27:31.954Z,10.48
2018-06-02T23:30:01.153Z,10.70
2018-06-02T23:32:30.505Z,11.00
2018-06-02T23:34:59.720Z,11.05
2018-06-02T23:37:28.917Z,11.75
2018-06-02T23:39:58.200Z,12.10
2018-06-02T23:42:27.756Z,11.97
2018-06-02T23:44:57.043Z,12.00
2018-06-02T23:47:26.281Z,12.27
2018-06-02T23:49:55.357Z,12.37
2018-06-02T23:52:24.589Z,13.05
2018-06-02T23:54:53.660Z,12.63
2018-06-02T23:57:23.023Z,13.18
2018-06-02T23:59:52.180Z,13.73
